sensor_id;sensor_type;location;lat;lon;timestamp;pressure;altitude;pressure_sealevel;temperature;humidity
11001;BME280;5553;48.506;8.870;2023-02-03T00:00:11;97835.19;;;2.79;100.00
11001;BME280;5553;48.506;8.870;2023-02-03T00:02:39;97846.44;;;2.79;100.00
11001;BME280;5553;48.506;8.870;2023-02-03T00:05:08;97850.59;;;2.82;100.00
11001;BME280;5553;48.506;8.870;2023-02-03T00:07:37;97845.00;;;2.75;100.00
11001;BME280;5553;48.506;8.870;2023-02-03T00:10:11;97848.13;;;2.80;100.00
11001;BME280;5553;48.506;8.870;2023-02-03T00:12:40;97858.97;;;2.74;100.00
11001;BME280;5553;48.506;8.870;2023-02-03T00:15:09;97850.19;;;2.75;100.00
11001;BME280;5553;48.506;8.870;2023-02-03T00:17:37;97856.59;;;2.71;100.00
11001;BME280;5553;48.506;8.870;2023-02-03T00:20:06;97861.81;;;2.71;100.00
11001;BME280;5553;48.506;8.870;2023-02-03T00:22:34;97857.75;;;2.67;100.00
11001;BME280;5553;48.506;8.870;2023-02-03T00:25:03;97863.06;;;2.66;100.00
11001;BME280;5553;48.506;8.870;2023-02-03T00:27:34;97861.41;;;2.65;100.00
11001;BME280;5553;48.506;8.870;2023-02-03T00:30:03;97860.56;;;2.64;100.00
11001;BME280;5553;48.506;8.870;2023-02-03T00:32:32;97857.97;;;2.64;100.00
11001;BME280;5553;48.506;8.870;2023-02-03T00:35:00;97859.41;;;2.68;100.00
11001;BME280;5553;48.506;8.870;2023-02-03T00:37:28;97873.06;;;2.72;100.00
11001;BME280;5553;48.506;8.870;2023-02-03T00:39:56;97871.50;;;2.69;100.00
11001;BME280;5553;48.506;8.870;2023-02-03T00:42:25;97867.31;;;2.67;100.00
11001;BME280;5553;48.506;8.870;2023-02-03T00:44:55;97865.56;;;2.67;100.00
11001;BME280;5553;48.506;8.870;2023-02-03T00:47:24;97865.56;;;2.67;100.00
11001;BME280;5553;48.506;8.870;2023-02-03T00:49:52;97861.50;;;2.63;100.00
11001;BME280;5553;48.506;8.870;2023-02-03T00:52:20;97865.56;;;2.67;100.00
11001;BME280;5553;48.506;8.870;2023-02-03T00:54:49;97864.00;;;2.65;100.00
11001;BME280;5553;48.506;8.870;2023-02-03T00:57:17;97869.09;;;2.66;100.00
11001;BME280;5553;48.506;8.870;2023-02-03T00:59:45;97863.88;;;2.66;100.00
11001;BME280;5553;48.506;8.870;2023-02-03T01:02:16;97868.88;;;2.69;100.00
11001;BME280;5553;48.506;8.870;2023-02-03T01:04:44;97868.78;;;2.71;100.00
11001;BME280;5553;48.506;8.870;2023-02-03T01:07:12;97877.53;;;2.70;100.00
11001;BME280;5553;48.506;8.870;2023-02-03T01:09:41;97873.06;;;2.72;100.00
11001;BME280;5553;48.506;8.870;2023-02-03T01:12:09;97881.69;;;2.72;100.00
11001;BME280;5553;48.506;8.870;2023-02-03T01:14:37;97882.53;;;2.73;100.00
11001;BME280;5553;48.506;8.870;2023-02-03T01:17:05;97884.44;;;2.71;100.00
11001;BME280;5553;48.506;8.870;2023-02-03T01:19:36;97879.31;;;2.69;100.00
11001;BME280;5553;48.506;8.870;2023-02-03T01:22:05;97885.47;;;2.68;100.00
11001;BME280;5553;48.506;8.870;2023-02-03T01:24:33;97880.34;;;2.67;100.00
11001;BME280;5553;48.506;8.870;2023-02-03T01:27:01;97881.09;;;2.69;100.00
11001;BME280;5553;48.506;8.870;2023-02-03T01:29:30;97868.88;;;2.69;100.00
11001;BME280;5553;48.506;8.870;2023-02-03T01:31:59;97861.81;;;2.71;100.00
11001;BME280;5553;48.506;8.870;2023-02-03T01:34:27;97865.22;;;2.72;100.00
11001;BME280;5553;48.506;8.870;2023-02-03T01:36:58;97851.03;;;2.76;100.00
11001;BME280;5553;48.506;8.870;2023-02-03T01:39:26;97840.38;;;2.79;100.00
11001;BME280;5553;48.506;8.870;2023-02-03T01:41:55;97833.31;;;2.81;100.00
11001;BME280;5553;48.506;8.870;2023-02-03T01:44:47;97825.34;;;2.82;100.00
11001;BME280;5553;48.506;8.870;2023-02-03T01:47:26;97829.75;;;2.82;100.00
11001;BME280;5553;48.506;8.870;2023-02-03T01:50:01;97839.38;;;2.93;100.00
11001;BME280;5553;48.506;8.870;2023-02-03T01:52:33;97828.25;;;2.91;100.00
11001;BME280;5553;48.506;8.870;2023-02-03T01:55:05;97812.38;;;2.94;100.00
11001;BME280;5553;48.506;8.870;2023-02-03T01:57:38;97812.72;;;2.89;100.00
11001;BME280;5553;48.506;8.870;2023-02-03T02:00:09;97774.34;;;2.91;100.00
11001;BME280;5553;48.506;8.870;2023-02-03T02:02:38;97770.66;;;2.94;100.00
11001;BME280;5553;48.506;8.870;2023-02-03T02:05:12;97772.13;;;2.98;100.00
11001;BME280;5553;48.506;8.870;2023-02-03T02:07:45;97792.25;;;2.96;100.00
11001;BME280;5553;48.506;8.870;2023-02-03T02:10:15;97796.72;;;2.94;100.00
11001;BME280;5553;48.506;8.870;2023-02-03T02:12:43;97802.53;;;2.97;100.00
11001;BME280;5553;48.506;8.870;2023-02-03T02:15:12;97807.28;;;2.92;100.00
11001;BME280;5553;48.506;8.870;2023-02-03T02:18:00;97806.31;;;2.93;100.00
11001;BME280;5553;48.506;8.870;2023-02-03T02:20:45;97803.03;;;2.91;100.00
11001;BME280;5553;48.506;8.870;2023-02-03T02:23:43;97788.41;;;2.89;100.00
11001;BME280;5553;48.506;8.870;2023-02-03T02:32:34;97755.97;;;2.93;100.00
11001;BME280;5553;48.506;8.870;2023-02-03T02:35:16;97734.41;;;2.91;100.00
11001;BME280;5553;48.506;8.870;2023-02-03T02:37:51;97731.44;;;2.95;100.00
11001;BME280;5553;48.506;8.870;2023-02-03T02:40:26;97730.13;;;2.90;100.00
11001;BME280;5553;48.506;8.870;2023-02-03T02:43:03;97724.19;;;2.88;100.00
11001;BME280;5553;48.506;8.870;2023-02-03T02:45:40;97733.91;;;2.85;100.00
11001;BME280;5553;48.506;8.870;2023-02-03T02:48:20;97746.59;;;2.90;100.00
11001;BME280;5553;48.506;8.870;2023-02-03T02:50:52;97739.97;;;2.97;100.00
11001;BME280;5553;48.506;8.870;2023-02-03T02:53:24;97740.31;;;2.93;100.00
11001;BME280;5553;48.506;8.870;2023-02-03T02:55:55;97729.50;;;2.86;100.00
11001;BME280;5553;48.506;8.870;2023-02-03T02:58:26;97725.84;;;2.89;100.00
11001;BME280;5553;48.506;8.870;2023-02-03T03:00:57;97719.59;;;2.91;100.00
11001;BME280;5553;48.506;8.870;2023-02-03T03:03:28;97716.59;;;2.84;100.00
11001;BME280;5553;48.506;8.870;2023-02-03T03:06:00;97706.78;;;2.88;100.00
11001;BME280;5553;48.506;8.870;2023-02-03T03:08:32;97693.38;;;2.81;100.00
11001;BME280;5553;48.506;8.870;2023-02-03T03:11:02;97700.63;;;2.89;100.00
11001;BME280;5553;48.506;8.870;2023-02-03T03:13:34;97708.41;;;2.78;100.00
11001;BME280;5553;48.506;8.870;2023-02-03T03:16:05;97708.56;;;2.88;100.00
11001;BME280;5553;48.506;8.870;2023-02-03T03:18:41;97718.03;;;2.89;100.00
11001;BME280;5553;48.506;8.870;2023-02-03T03:21:15;97724.81;;;2.91;100.00
11001;BME280;5553;48.506;8.870;2023-02-03T03:23:49;97730.13;;;2.90;100.00
11001;BME280;5553;48.506;8.870;2023-02-03T03:26:23;97722.19;;;2.91;100.00
11001;BME280;5553;48.506;8.870;2023-02-03T03:28:58;97721.47;;;2.89;100.00
11001;BME280;5553;48.506;8.870;2023-02-03T03:31:28;97710.44;;;2.85;100.00
11001;BME280;5553;48.506;8.870;2023-02-03T03:33:59;97708.34;;;2.91;100.00
11001;BME280;5553;48.506;8.870;2023-02-03T03:36:31;97695.31;;;2.91;100.00
11001;BME280;5553;48.506;8.870;2023-02-03T03:39:04;97701.78;;;2.85;100.00
11001;BME280;5553;48.506;8.870;2023-02-03T03:41:40;97696.44;;;2.87;100.00
11001;BME280;5553;48.506;8.870;2023-02-03T03:44:12;97704.03;;;2.90;100.00
11001;BME280;5553;48.506;8.870;2023-02-03T03:46:46;97705.44;;;2.82;100.00
11001;BME280;5553;48.506;8.870;2023-02-03T03:49:19;97708.72;;;2.73;100.00
11001;BME280;5553;48.506;8.870;2023-02-03T03:51:52;97723.25;;;2.89;100.00
11001;BME280;5553;48.506;8.870;2023-02-03T07:59:21;97709.09;;;3.15;100.00
11001;BME280;5553;48.506;8.870;2023-02-03T08:01:49;97720.34;;;3.16;100.00
11001;BME280;5553;48.506;8.870;2023-02-03T08:04:20;97735.28;;;3.14;100.00
11001;BME280;5553;48.506;8.870;2023-02-03T08:06:48;97733.50;;;3.14;100.00
11001;BME280;5553;48.506;8.870;2023-02-03T08:09:17;97730.78;;;3.16;100.00
11001;BME280;5553;48.506;8.870;2023-02-03T08:11:45;97747.03;;;3.19;100.00
11001;BME280;5553;48.506;8.870;2023-02-03T08:14:13;97751.19;;;3.22;100.00
11001;BME280;5553;48.506;8.870;2023-02-03T08:16:44;97761.72;;;3.20;100.00
11001;BME280;5553;48.506;8.870;2023-02-03T08:19:13;97765.06;;;3.22;100.00
11001;BME280;5553;48.506;8.870;2023-02-03T08:21:41;97773.59;;;3.24;100.00
11001;BME280;5553;48.506;8.870;2023-02-03T08:24:09;97781.31;;;3.26;100.00
11001;BME280;5553;48.506;8.870;2023-02-03T08:26:38;97784.88;;;3.25;100.00
11001;BME280;5553;48.506;8.870;2023-02-03T08:29:06;97777.16;;;3.23;100.00
11001;BME280;5553;48.506;8.870;2023-02-03T08:31:35;97776.94;;;3.26;100.00
11001;BME280;5553;48.506;8.870;2023-02-03T08:34:06;97765.31;;;3.30;100.00
11001;BME280;5553;48.506;8.870;2023-02-03T08:36:35;97773.13;;;3.30;100.00
11001;BME280;5553;48.506;8.870;2023-02-03T08:39:04;97773.88;;;3.32;100.00
11001;BME280;5553;48.506;8.870;2023-02-03T08:41:32;97785.94;;;3.33;100.00
11001;BME280;5553;48.506;8.870;2023-02-03T08:44:01;97789.75;;;3.41;100.00
11001;BME280;5553;48.506;8.870;2023-02-03T08:46:29;97786.91;;;3.44;100.00
11001;BME280;5553;48.506;8.870;2023-02-03T08:48:57;97800.69;;;3.46;100.00
11001;BME280;5553;48.506;8.870;2023-02-03T08:51:29;97802.34;;;3.47;100.00
11001;BME280;5553;48.506;8.870;2023-02-03T08:53:57;97792.88;;;3.46;100.00
11001;BME280;5553;48.506;8.870;2023-02-03T08:56:26;97796.06;;;3.49;100.00
11001;BME280;5553;48.506;8.870;2023-02-03T08:58:54;97809.34;;;3.46;100.00
11001;BME280;5553;48.506;8.870;2023-02-03T09:01:22;97821.44;;;3.47;100.00
11001;BME280;5553;48.506;8.870;2023-02-03T09:03:51;97822.16;;;3.49;100.00
11001;BME280;5553;48.506;8.870;2023-02-03T09:06:19;97823.25;;;3.58;100.00
11001;BME280;5553;48.506;8.870;2023-02-03T09:08:50;97816.84;;;3.62;100.00
11001;BME280;5553;48.506;8.870;2023-02-03T09:11:18;97799.78;;;3.69;100.00
11001;BME280;5553;48.506;8.870;2023-02-03T09:13:46;97796.34;;;3.91;100.00
11001;BME280;5553;48.506;8.870;2023-02-03T09:16:17;97821.63;;;3.79;100.00
11001;BME280;5553;48.506;8.870;2023-02-03T09:18:46;97814.72;;;3.67;100.00
11001;BME280;5553;48.506;8.870;2023-02-03T09:21:15;97807.34;;;3.72;100.00
11001;BME280;5553;48.506;8.870;2023-02-03T09:23:44;97799.06;;;3.78;100.00
11001;BME280;5553;48.506;8.870;2023-02-03T09:26:15;97789.09;;;3.72;100.00
11001;BME280;5553;48.506;8.870;2023-02-03T09:28:44;97777.69;;;3.96;100.00
11001;BME280;5553;48.506;8.870;2023-02-03T09:31:13;97785.78;;;3.93;100.00
11001;BME280;5553;48.506;8.870;2023-02-03T09:33:42;97768.44;;;3.92;100.00
11001;BME280;5553;48.506;8.870;2023-02-03T09:36:11;97770.22;;;4.02;100.00
11001;BME280;5553;48.506;8.870;2023-02-03T09:38:40;97769.88;;;3.96;100.00
11001;BME280;5553;48.506;8.870;2023-02-03T09:41:18;97765.72;;;4.04;100.00
11001;BME280;5553;48.506;8.870;2023-02-03T09:43:53;97766.03;;;4.45;100.00
11001;BME280;5553;48.506;8.870;2023-02-03T09:46:26;97773.34;;;4.51;100.00
11001;BME280;5553;48.506;8.870;2023-02-03T09:48:58;97786.66;;;4.59;100.00
11001;BME280;5553;48.506;8.870;2023-02-03T09:51:33;97778.03;;;4.80;100.00
11001;BME280;5553;48.506;8.870;2023-02-03T09:54:10;97767.91;;;4.75;100.00
11001;BME280;5553;48.506;8.870;2023-02-03T09:56:46;97762.66;;;4.54;100.00
11001;BME280;5553;48.506;8.870;2023-02-03T09:59:17;97755.03;;;4.62;100.00
11001;BME280;5553;48.506;8.870;2023-02-03T10:01:53;97757.19;;;4.57;100.00
11001;BME280;5553;48.506;8.870;2023-02-03T10:04:29;97752.31;;;4.85;100.00
11001;BME280;5553;48.506;8.870;2023-02-03T10:07:05;97759.84;;;4.99;100.00
11001;BME280;5553;48.506;8.870;2023-02-03T10:09:46;97747.34;;;4.82;100.00
11001;BME280;5553;48.506;8.870;2023-02-03T10:12:42;97754.63;;;4.99;100.00
11001;BME280;5553;48.506;8.870;2023-02-03T10:18:12;97749.22;;;5.12;100.00
11001;BME280;5553;48.506;8.870;2023-02-03T10:20:43;97742.91;;;5.14;100.00
11001;BME280;5553;48.506;8.870;2023-02-03T10:23:15;97747.22;;;5.46;100.00
11001;BME280;5553;48.506;8.870;2023-02-03T10:25:48;97740.47;;;5.22;100.00
11001;BME280;5553;48.506;8.870;2023-02-03T10:28:23;97728.69;;;5.28;100.00
11001;BME280;5553;48.506;8.870;2023-02-03T10:30:55;97725.25;;;4.86;100.00
11001;BME280;5553;48.506;8.870;2023-02-03T10:33:25;97721.50;;;4.67;100.00
11001;BME280;5553;48.506;8.870;2023-02-03T10:36:02;97713.75;;;4.98;100.00
11001;BME280;5553;48.506;8.870;2023-02-03T10:38:42;97727.31;;;4.92;100.00
11001;BME280;5553;48.506;8.870;2023-02-03T10:41:12;97734.47;;;5.32;100.00
11001;BME280;5553;48.506;8.870;2023-02-03T10:43:44;97723.94;;;5.43;100.00
11001;BME280;5553;48.506;8.870;2023-02-03T10:46:17;97733.81;;;5.60;100.00
11001;BME280;5553;48.506;8.870;2023-02-03T10:48:46;97737.50;;;5.79;100.00
11001;BME280;5553;48.506;8.870;2023-02-03T10:51:19;97734.66;;;5.70;100.00
11001;BME280;5553;48.506;8.870;2023-02-03T10:53:49;97736.44;;;5.39;100.00
11001;BME280;5553;48.506;8.870;2023-02-03T10:56:20;97742.50;;;5.40;100.00
11001;BME280;5553;48.506;8.870;2023-02-03T10:58:54;97732.78;;;5.21;100.00
11001;BME280;5553;48.506;8.870;2023-02-03T11:01:25;97727.47;;;5.32;100.00
11001;BME280;5553;48.506;8.870;2023-02-03T11:03:57;97723.50;;;5.38;100.00
11001;BME280;5553;48.506;8.870;2023-02-03T11:06:26;97719.06;;;5.59;100.00
11001;BME280;5553;48.506;8.870;2023-02-03T11:08:55;97691.47;;;5.25;100.00
11001;BME280;5553;48.506;8.870;2023-02-03T11:11:25;97683.50;;;5.57;100.00
11001;BME280;5553;48.506;8.870;2023-02-03T11:14:10;97666.81;;;5.88;100.00
11001;BME280;5553;48.506;8.870;2023-02-03T11:16:39;97657.78;;;5.72;100.00
11001;BME280;5553;48.506;8.870;2023-02-03T11:19:14;97660.06;;;5.25;100.00
11001;BME280;5553;48.506;8.870;2023-02-03T11:21:45;97664.44;;;5.14;100.00
11001;BME280;5553;48.506;8.870;2023-02-03T11:24:18;97647.59;;;5.07;100.00
11001;BME280;5553;48.506;8.870;2023-02-03T11:26:49;97659.56;;;4.89;100.00
11001;BME280;5553;48.506;8.870;2023-02-03T11:29:25;97667.31;;;4.90;100.00
11001;BME280;5553;48.506;8.870;2023-02-03T11:31:57;97674.19;;;4.70;100.00
11001;BME280;5553;48.506;8.870;2023-02-03T11:34:28;97674.31;;;4.69;100.00
11001;BME280;5553;48.506;8.870;2023-02-03T11:37:09;97655.94;;;4.59;100.00
11001;BME280;5553;48.506;8.870;2023-02-03T11:39:54;97665.06;;;4.65;100.00
11001;BME280;5553;48.506;8.870;2023-02-03T11:42:23;97652.84;;;4.65;100.00
11001;BME280;5553;48.506;8.870;2023-02-03T11:45:12;97654.50;;;4.66;100.00
11001;BME280;5553;48.506;8.870;2023-02-03T11:47:44;97641.41;;;4.66;100.00
11001;BME280;5553;48.506;8.870;2023-02-03T11:50:22;97647.59;;;4.65;100.00
11001;BME280;5553;48.506;8.870;2023-02-03T11:53:09;97647.84;;;4.62;100.00
11001;BME280;5553;48.506;8.870;2023-02-03T11:55:47;97658.88;;;4.66;100.00
11001;BME280;5553;48.506;8.870;2023-02-03T11:58:37;97652.13;;;4.63;100.00
11001;BME280;5553;48.506;8.870;2023-02-03T12:01:18;97670.09;;;4.78;100.00
11001;BME280;5553;48.506;8.870;2023-02-03T12:04:17;97661.50;;;4.66;100.00
11001;BME280;5553;48.506;8.870;2023-02-03T12:07:03;97673.50;;;4.68;100.00
11001;BME280;5553;48.506;8.870;2023-02-03T12:09:43;97666.84;;;4.64;100.00
11001;BME280;5553;48.506;8.870;2023-02-03T12:12:28;97667.09;;;4.61;100.00
11001;BME280;5553;48.506;8.870;2023-02-03T12:15:14;97654.56;;;4.55;100.00
11001;BME280;5553;48.506;8.870;2023-02-03T12:18:02;97663.41;;;4.64;100.00
11001;BME280;5553;48.506;8.870;2023-02-03T12:20:43;97660.69;;;4.65;100.00
11001;BME280;5553;48.506;8.870;2023-02-03T12:23:29;97644.53;;;4.60;100.00
11001;BME280;5553;48.506;8.870;2023-02-03T12:26:06;97644.03;;;4.66;100.00
11001;BME280;5553;48.506;8.870;2023-02-03T12:28:44;97642.94;;;4.69;100.00
11001;BME280;5553;48.506;8.870;2023-02-03T12:31:22;97638.97;;;4.74;100.00
11001;BME280;5553;48.506;8.870;2023-02-03T12:34:01;97645.69;;;4.67;100.00
11001;BME280;5553;48.506;8.870;2023-02-03T12:36:37;97647.66;;;4.75;100.00
11001;BME280;5553;48.506;8.870;2023-02-03T12:39:13;97633.91;;;4.73;100.00
11001;BME280;5553;48.506;8.870;2023-02-03T12:41:48;97637.09;;;4.77;100.00
11001;BME280;5553;48.506;8.870;2023-02-03T12:44:20;97634.47;;;4.77;100.00
11001;BME280;5553;48.506;8.870;2023-02-03T12:46:56;97646.06;;;4.84;100.00
11001;BME280;5553;48.506;8.870;2023-02-03T12:49:37;97640.84;;;4.84;100.00
11001;BME280;5553;48.506;8.870;2023-02-03T12:52:15;97642.25;;;4.88;100.00
11001;BME280;5553;48.506;8.870;2023-02-03T12:54:50;97652.25;;;4.83;100.00
11001;BME280;5553;48.506;8.870;2023-02-03T12:57:25;97638.38;;;4.82;100.00
11001;BME280;5553;48.506;8.870;2023-02-03T13:00:07;97636.91;;;4.89;100.00
11001;BME280;5553;48.506;8.870;2023-02-03T13:02:47;97618.53;;;4.80;100.00
11001;BME280;5553;48.506;8.870;2023-02-03T13:05:27;97608.31;;;4.77;100.00
11001;BME280;5553;48.506;8.870;2023-02-03T13:08:06;97609.72;;;4.81;100.00
11001;BME280;5553;48.506;8.870;2023-02-03T13:10:45;97587.22;;;4.68;100.00
11001;BME280;5553;48.506;8.870;2023-02-03T13:13:24;97585.56;;;4.67;100.00
11001;BME280;5553;48.506;8.870;2023-02-03T13:15:56;97593.53;;;4.66;100.00
11001;BME280;5553;48.506;8.870;2023-02-03T13:18:28;97597.22;;;4.63;100.00
11001;BME280;5553;48.506;8.870;2023-02-03T13:21:00;97589.78;;;4.59;100.00
11001;BME280;5553;48.506;8.870;2023-02-03T13:23:29;97587.84;;;4.61;100.00
11001;BME280;5553;48.506;8.870;2023-02-03T13:26:27;97567.50;;;4.64;100.00
11001;BME280;5553;48.506;8.870;2023-02-03T13:29:08;97529.41;;;4.62;100.00
11001;BME280;5553;48.506;8.870;2023-02-03T13:31:48;97508.09;;;4.66;100.00
11001;BME280;5553;48.506;8.870;2023-02-03T13:34:35;97533.47;;;4.75;100.00
11001;BME280;5553;48.506;8.870;2023-02-03T13:37:30;97551.38;;;4.80;100.00
11001;BME280;5553;48.506;8.870;2023-02-03T13:40:11;97556.75;;;4.79;100.00
11001;BME280;5553;48.506;8.870;2023-02-03T13:42:45;97540.34;;;4.77;100.00
11001;BME280;5553;48.506;8.870;2023-02-03T13:45:25;97555.78;;;4.80;100.00
11001;BME280;5553;48.506;8.870;2023-02-03T13:47:56;97557.41;;;4.81;100.00
11001;BME280;5553;48.506;8.870;2023-02-03T13:50:28;97578.59;;;4.78;100.00
11001;BME280;5553;48.506;8.870;2023-02-03T13:53:02;97583.13;;;4.75;100.00
11001;BME280;5553;48.506;8.870;2023-02-03T13:55:36;97582.19;;;4.77;100.00
11001;BME280;5553;48.506;8.870;2023-02-03T13:58:17;97570.06;;;4.75;100.00
11001;BME280;5553;48.506;8.870;2023-02-03T14:01:05;97570.38;;;4.82;100.00
11001;BME280;5553;48.506;8.870;2023-02-03T14:03:42;97570.06;;;4.75;100.00
11001;BME280;5553;48.506;8.870;2023-02-03T14:09:44;97558.66;;;4.77;100.00
11001;BME280;5553;48.506;8.870;2023-02-03T14:12:53;97553.00;;;4.81;100.00
11001;BME280;5553;48.506;8.870;2023-02-03T14:15:33;97566.22;;;4.80;100.00
11001;BME280;5553;48.506;8.870;2023-02-03T14:18:31;97579.56;;;4.77;100.00
11001;BME280;5553;48.506;8.870;2023-02-03T14:21:17;97585.50;;;4.79;100.00
11001;BME280;5553;48.506;8.870;2023-02-03T14:23:54;97574.19;;;4.78;100.00
11001;BME280;5553;48.506;8.870;2023-02-03T14:26:41;97589.06;;;4.78;100.00
11001;BME280;5553;48.506;8.870;2023-02-03T14:29:23;97609.66;;;4.71;100.00
11001;BME280;5553;48.506;8.870;2023-02-03T14:31:55;97612.16;;;4.72;100.00
11001;BME280;5553;48.506;8.870;2023-02-03T14:34:35;97612.41;;;4.69;100.00
11001;BME280;5553;48.506;8.870;2023-02-03T14:37:19;97611.69;;;4.67;100.00
11001;BME280;5553;48.506;8.870;2023-02-03T14:40:14;97623.38;;;4.63;100.00
11001;BME280;5553;48.506;8.870;2023-02-03T14:43:12;97625.97;;;4.63;100.00
11001;BME280;5553;48.506;8.870;2023-02-03T14:46:11;97636.69;;;4.60;100.00
11001;BME280;5553;48.506;8.870;2023-02-03T14:49:09;97617.09;;;4.55;100.00
11001;BME280;5553;48.506;8.870;2023-02-03T14:51:58;97617.25;;;4.53;100.00
11001;BME280;5553;48.506;8.870;2023-02-03T14:54:46;97628.66;;;4.52;100.00
11001;BME280;5553;48.506;8.870;2023-02-03T14:57:30;97638.78;;;4.45;100.00
11001;BME280;5553;48.506;8.870;2023-02-03T15:00:08;97641.41;;;4.45;100.00
11001;BME280;5553;48.506;8.870;2023-02-03T15:03:25;97639.88;;;4.43;100.00
11001;BME280;5553;48.506;8.870;2023-02-03T15:06:00;97644.66;;;4.38;100.00
11001;BME280;5553;48.506;8.870;2023-02-03T15:08:37;97637.50;;;4.40;100.00
11001;BME280;5553;48.506;8.870;2023-02-03T15:11:22;97636.09;;;4.36;100.00
11001;BME280;5553;48.506;8.870;2023-02-03T15:13:51;97633.63;;;4.34;100.00
11001;BME280;5553;48.506;8.870;2023-02-03T15:16:23;97650.94;;;4.35;100.00
11001;BME280;5553;48.506;8.870;2023-02-03T15:18:54;97645.59;;;4.37;100.00
11001;BME280;5553;48.506;8.870;2023-02-03T15:21:23;97638.69;;;4.36;100.00
11001;BME280;5553;48.506;8.870;2023-02-03T15:23:52;97647.38;;;4.36;100.00
11001;BME280;5553;48.506;8.870;2023-02-03T15:26:21;97648.19;;;4.37;100.00
11001;BME280;5553;48.506;8.870;2023-02-03T15:28:54;97648.44;;;4.34;100.00
11001;BME280;5553;48.506;8.870;2023-02-03T15:31:29;97656.28;;;4.34;100.00
11001;BME280;5553;48.506;8.870;2023-02-03T15:34:03;97650.94;;;4.35;100.00
11001;BME280;5553;48.506;8.870;2023-02-03T15:36:38;97655.34;;;4.35;100.00
11001;BME280;5553;48.506;8.870;2023-02-03T15:39:20;97648.56;;;4.32;100.00
11001;BME280;5553;48.506;8.870;2023-02-03T15:41:51;97644.44;;;4.30;100.00
11001;BME280;5553;48.506;8.870;2023-02-03T15:44:28;97637.16;;;4.33;100.00
11001;BME280;5553;48.506;8.870;2023-02-03T15:47:01;97626.03;;;4.31;100.00
11001;BME280;5553;48.506;8.870;2023-02-03T15:49:34;97625.06;;;4.32;100.00
11001;BME280;5553;48.506;8.870;2023-02-03T15:52:09;97629.22;;;4.35;100.00
11001;BME280;5553;48.506;8.870;2023-02-03T15:54:42;97619.69;;;4.34;100.00
11001;BME280;5553;48.506;8.870;2023-02-03T15:57:23;97626.47;;;4.36;100.00
11001;BME280;5553;48.506;8.870;2023-02-03T15:59:54;97634.44;;;4.35;100.00
11001;BME280;5553;48.506;8.870;2023-02-03T16:02:29;97627.53;;;4.34;100.00
11001;BME280;5553;48.506;8.870;2023-02-03T16:05:02;97629.47;;;4.32;100.00
11001;BME280;5553;48.506;8.870;2023-02-03T16:07:31;97647.50;;;4.35;100.00
11001;BME280;5553;48.506;8.870;2023-02-03T16:09:59;97651.06;;;4.34;100.00
11001;BME280;5553;48.506;8.870;2023-02-03T16:12:29;97652.72;;;4.35;100.00
11001;BME280;5553;48.506;8.870;2023-02-03T16:14:59;97659.13;;;4.31;100.00
11001;BME280;5553;48.506;8.870;2023-02-03T16:17:32;97677.56;;;4.29;100.00
11001;BME280;5553;48.506;8.870;2023-02-03T16:20:20;97676.03;;;4.26;100.00
11001;BME280;5553;48.506;8.870;2023-02-03T16:23:01;97665.56;;;4.26;100.00
11001;BME280;5553;48.506;8.870;2023-02-03T16:25:31;97667.84;;;4.31;100.00
11001;BME280;5553;48.506;8.870;2023-02-03T16:28:01;97667.50;;;4.24;100.00
11001;BME280;5553;48.506;8.870;2023-02-03T16:30:51;97666.28;;;4.28;100.00
11001;BME280;5553;48.506;8.870;2023-02-03T16:33:35;97669.47;;;4.32;100.00
11001;BME280;5553;48.506;8.870;2023-02-03T16:36:16;97655.13;;;4.26;100.00
11001;BME280;5553;48.506;8.870;2023-02-03T16:38:59;97656.81;;;4.27;100.00
11001;BME280;5553;48.506;8.870;2023-02-03T16:41:41;97655.13;;;4.26;100.00
11001;BME280;5553;48.506;8.870;2023-02-03T16:44:21;97652.50;;;4.26;100.00
11001;BME280;5553;48.506;8.870;2023-02-03T16:47:03;97654.53;;;4.23;100.00
11001;BME280;5553;48.506;8.870;2023-02-03T16:49:46;97655.38;;;4.23;100.00
11001;BME280;5553;48.506;8.870;2023-02-03T16:52:27;97658.13;;;4.22;100.00
11001;BME280;5553;48.506;8.870;2023-02-03T16:54:55;97674.50;;;4.24;100.00
11001;BME280;5553;48.506;8.870;2023-02-03T16:57:24;97663.72;;;4.17;100.00
11001;BME280;5553;48.506;8.870;2023-02-03T16:59:52;97654.19;;;4.16;100.00
11001;BME280;5553;48.506;8.870;2023-02-03T17:02:20;97649.69;;;4.18;100.00
11001;BME280;5553;48.506;8.870;2023-02-03T17:04:51;97636.50;;;4.20;100.00
11001;BME280;5553;48.506;8.870;2023-02-03T17:07:19;97643.75;;;4.16;100.00
11001;BME280;5553;48.506;8.870;2023-02-03T17:09:47;97642.69;;;4.19;100.00
11001;BME280;5553;48.506;8.870;2023-02-03T17:12:16;97642.81;;;4.17;100.00
11001;BME280;5553;48.506;8.870;2023-02-03T17:14:44;97651.84;;;4.13;100.00
11001;BME280;5553;48.506;8.870;2023-02-03T17:17:12;97658.59;;;4.16;100.00
11001;BME280;5553;48.506;8.870;2023-02-03T17:19:40;97652.69;;;4.14;100.00
11001;BME280;5553;48.506;8.870;2023-02-03T17:22:11;97660.53;;;4.14;100.00
11001;BME280;5553;48.506;8.870;2023-02-03T17:24:40;97662.28;;;4.13;100.00
11001;BME280;5553;48.506;8.870;2023-02-03T17:27:09;97673.81;;;4.11;100.00
11001;BME280;5553;48.506;8.870;2023-02-03T17:29:38;97672.72;;;4.13;100.00
11001;BME280;5553;48.506;8.870;2023-02-03T17:32:06;97672.72;;;4.13;100.00
11001;BME280;5553;48.506;8.870;2023-02-03T17:34:36;97667.75;;;4.10;100.00
11001;BME280;5553;48.506;8.870;2023-02-03T17:37:05;97665.84;;;4.12;100.00
11001;BME280;5553;48.506;8.870;2023-02-03T17:39:36;97677.94;;;4.13;100.00
11001;BME280;5553;48.506;8.870;2023-02-03T17:42:04;97683.31;;;4.12;100.00
11001;BME280;5553;48.506;8.870;2023-02-03T17:44:32;97697.19;;;4.12;100.00
11001;BME280;5553;48.506;8.870;2023-02-03T17:47:01;97698.84;;;4.13;100.00
11001;BME280;5553;48.506;8.870;2023-02-03T17:49:29;97697.69;;;4.17;100.00
11001;BME280;5553;48.506;8.870;2023-02-03T17:51:58;97704.22;;;4.12;100.00
11001;BME280;5553;48.506;8.870;2023-02-03T17:54:26;97705.75;;;4.14;100.00
11001;BME280;5553;48.506;8.870;2023-02-03T17:56:57;97702.66;;;4.09;100.00
11001;BME280;5553;48.506;8.870;2023-02-03T17:59:25;97704.31;;;4.10;100.00
11001;BME280;5553;48.506;8.870;2023-02-03T18:01:54;97683.56;;;4.09;100.00
11001;BME280;5553;48.506;8.870;2023-02-03T18:04:22;97691.97;;;4.12;100.00